»·PEaware :: N32196 KRDD-KACV

N32196 :: KRDD-KACV

FLIGHT INFORMATION

Flight Status: Arrived
Operator: Privately registered:
United States
More flights under this callsign
Pilot: Gary H. (18965)
Aircraft: PIPER PA-28R-201 ARROW
(P28R)
More flights by this aircraft type
Origin: KRDD Redding Mun
United States
Destination: KACV Arcata
United States
More flights between these airports :: More routes between these airports
Route: +YAGER
File this flight plan on PilotEdge
Remarks:
Altitude:
(Current/Filed)
8,000ft
Speed:
(Current/Filed)
120kts
Departed: 24-Sep-20 03:38 PM
Arrived: 24-Sep-20 04:41 PM
Distance/Time
Traveled:
87nm/1:03
Distance/Time
To Go:
Arrived

Flight Plot

Page will automatically refresh every two minutes.

Flight plan parsing failed; only flown route is shown


Map Options




Map Legend


Flown Route
Filed Route
Departure Airport
Arrival Airport
Navaid (VOR, NDB)
Fix

Horizontal Profiles

Position Reports

Time Latitude Longitude Heading Altitude Ground
Speed
24-Sep-20 15:25 40.519356 -122.291846 359 499ft 0kts
24-Sep-20 15:26 40.519356 -122.291846 359 499ft 0kts
24-Sep-20 15:27 40.519356 -122.291846 359 499ft 0kts
24-Sep-20 15:28 40.519356 -122.291846 359 499ft 0kts
24-Sep-20 15:29 40.519356 -122.291846 359 499ft 0kts
24-Sep-20 15:30 40.519716 -122.291820 346 499ft 4kts
24-Sep-20 15:31 40.520149 -122.293570 280 499ft 0kts
24-Sep-20 15:32 40.520149 -122.293570 280 499ft 0kts
24-Sep-20 15:33 40.520149 -122.293570 280 499ft 0kts
24-Sep-20 15:34 40.520149 -122.293570 280 499ft 0kts
24-Sep-20 15:35 40.520191 -122.293698 295 499ft 3kts
24-Sep-20 15:36 40.520194 -122.293708 294 499ft 0kts
24-Sep-20 15:37 40.513992 -122.294881 181 612ft 80kts
24-Sep-20 15:38 40.487941 -122.293087 176 1514ft 111kts
24-Sep-20 15:39 40.456886 -122.292372 177 2379ft 110kts
24-Sep-20 15:40 40.425830 -122.291166 177 3192ft 113kts
24-Sep-20 15:42 40.394215 -122.289457 177 4063ft 115kts
24-Sep-20 15:43 40.363224 -122.293398 233 4802ft 114kts
24-Sep-20 15:44 40.363754 -122.331052 279 5602ft 104kts
24-Sep-20 15:45 40.368431 -122.368549 280 6314ft 103kts
24-Sep-20 15:46 40.373597 -122.405552 280 6971ft 103kts
24-Sep-20 15:47 40.378924 -122.442502 280 7579ft 103kts
24-Sep-20 15:48 40.384426 -122.479184 280 8135ft 102kts
24-Sep-20 15:49 40.389723 -122.515139 279 8718ft 100kts
24-Sep-20 15:50 40.395075 -122.550339 279 9286ft 98kts
24-Sep-20 15:51 40.400652 -122.585444 278 9784ft 98kts
24-Sep-20 15:52 40.406247 -122.622199 278 10002ft 109kts
24-Sep-20 15:53 40.412140 -122.662310 277 9987ft 114kts
24-Sep-20 15:54 40.418036 -122.703112 277 10031ft 113kts
24-Sep-20 15:55 40.423854 -122.743831 277 10027ft 113kts
24-Sep-20 15:55 40.428656 -122.777806 277 10022ft 113kts
24-Sep-20 15:57 40.435313 -122.825478 277 10040ft 113kts
24-Sep-20 15:58 40.440991 -122.866373 277 10062ft 113kts
24-Sep-20 15:58 40.445685 -122.900543 277 10069ft 113kts
24-Sep-20 15:59 40.451147 -122.941359 277 10062ft 113kts
24-Sep-20 16:01 40.457313 -122.989197 277 10048ft 113kts
24-Sep-20 16:02 40.462395 -123.030112 277 10049ft 113kts
24-Sep-20 16:02 40.466495 -123.064198 277 10048ft 113kts
24-Sep-20 16:03 40.471260 -123.105165 277 10044ft 113kts
24-Sep-20 16:04 40.475887 -123.146096 272 10010ft 112kts
24-Sep-20 16:05 40.481532 -123.185788 272 10053ft 107kts
24-Sep-20 16:06 40.485627 -123.224551 273 10096ft 106kts
24-Sep-20 16:07 40.490371 -123.262854 274 10149ft 105kts
24-Sep-20 16:08 40.494645 -123.300945 274 10189ft 104kts
24-Sep-20 16:09 40.498405 -123.338689 274 10232ft 104kts
24-Sep-20 16:10 40.502230 -123.376206 276 10268ft 103kts
24-Sep-20 16:11 40.506599 -123.413664 276 10273ft 104kts
24-Sep-20 16:12 40.510973 -123.452208 276 10127ft 105kts
24-Sep-20 16:13 40.515689 -123.490460 277 10003ft 106kts
24-Sep-20 16:14 40.520526 -123.528753 277 9915ft 106kts
24-Sep-20 16:15 40.525280 -123.566707 277 9936ft 104kts
24-Sep-20 16:16 40.529912 -123.603796 276 10032ft 102kts
24-Sep-20 16:17 40.534488 -123.640843 276 10100ft 103kts
24-Sep-20 16:18 40.539200 -123.680952 277 9401ft 115kts
24-Sep-20 16:19 40.544526 -123.723459 278 8494ft 118kts
24-Sep-20 16:20 40.550437 -123.765889 278 7597ft 118kts
24-Sep-20 16:21 40.556170 -123.808185 278 6752ft 117kts
24-Sep-20 16:22 40.580918 -123.835905 323 5890ft 121kts
24-Sep-20 16:23 40.608627 -123.856391 322 5684ft 106kts
24-Sep-20 16:24 40.634302 -123.874917 322 5688ft 104kts
24-Sep-20 16:25 40.659717 -123.893359 322 5714ft 102kts
24-Sep-20 16:26 40.684585 -123.912069 322 5714ft 106kts
24-Sep-20 16:27 40.710552 -123.930441 324 5592ft 108kts
24-Sep-20 16:28 40.738845 -123.948362 330 5137ft 116kts
24-Sep-20 16:29 40.766862 -123.966700 327 4759ft 116kts
24-Sep-20 16:30 40.770068 -123.969033 326 4720ft 114kts
24-Sep-20 16:31 40.795806 -123.987843 331 4404ft 113kts
24-Sep-20 16:32 40.823727 -124.005250 327 3733ft 86kts
24-Sep-20 16:33 40.844798 -124.019134 331 2943ft 85kts
24-Sep-20 16:34 40.864999 -124.030899 334 2588ft 73kts
24-Sep-20 16:35 40.883921 -124.042989 323 2297ft 77kts
24-Sep-20 16:36 40.903045 -124.057862 326 1824ft 80kts
24-Sep-20 16:37 40.923286 -124.071996 332 1259ft 83kts
24-Sep-20 16:38 40.943234 -124.085081 331 902ft 81kts
24-Sep-20 16:39 40.963295 -124.098178 333 450ft 76kts
24-Sep-20 16:40 40.976614 -124.107379 320 225ft 22kts
24-Sep-20 16:41 40.978301 -124.107247 32 225ft 0kts

Navigation Log

Ident Type
Flight plan parsing failed, navigation log unavailable